Berabevu, Argentina
Current Conditions -  °F | °C
As of 6:00 AM on Friday 31 Oct 2014 (Local Time) from SAAR Reporting Station
Overcast Overcast  
Wind Chill: 68°   Ceiling: 10000
Heat Index: 68°   Visibility: 6mi
Dew Point: 61°   Wind: 6mph
Humidity: 78%   Direction: 70°ENE
Pressure: 29.8"   Gusts: NA
Location:  33.48°S, 61.99°W
Report Text: SAAR 310900Z 07005KT 9999 SCT025 OVC10020/16 Q1009
Loading
Personal Weather Stations






























Interactive Weather Map New forecast layout! Learn more

10-Day Weather Forecast

Advertisements
Track Severe Weather on mobile